sensor_id;sensor_type;location;lat;lon;timestamp;P1;durP1;ratioP1;P2;durP2;ratioP2
12776;SDS011;6452;41.572;23.732;2022-10-16T09:30:44;5.30;;;4.10;;
12776;SDS011;6452;41.572;23.732;2022-10-16T09:47:44;4.50;;;4.20;;
12776;SDS011;6452;41.572;23.732;2022-10-16T09:57:27;3.80;;;3.50;;
12776;SDS011;6452;41.572;23.732;2022-10-16T10:02:36;3.60;;;3.30;;
12776;SDS011;6452;41.572;23.732;2022-10-16T10:07:33;4.00;;;3.40;;
12776;SDS011;6452;41.572;23.732;2022-10-16T10:10:03;8.50;;;3.70;;
12776;SDS011;6452;41.572;23.732;2022-10-16T10:12:30;4.90;;;3.20;;
12776;SDS011;6452;41.572;23.732;2022-10-16T10:17:24;5.00;;;4.50;;
12776;SDS011;6452;41.572;23.732;2022-10-16T10:29:53;3.45;;;3.15;;
12776;SDS011;6452;41.572;23.732;2022-10-16T10:32:44;3.40;;;3.20;;
12776;SDS011;6452;41.572;23.732;2022-10-16T10:35:30;3.60;;;3.40;;
12776;SDS011;6452;41.572;23.732;2022-10-16T10:43:27;3.80;;;2.80;;
12776;SDS011;6452;41.572;23.732;2022-10-16T10:46:07;3.30;;;3.00;;
12776;SDS011;6452;41.572;23.732;2022-10-16T10:51:01;3.15;;;2.80;;
12776;SDS011;6452;41.572;23.732;2022-10-16T11:06:36;2.40;;;2.30;;
12776;SDS011;6452;41.572;23.732;2022-10-16T11:11:38;2.70;;;2.50;;
12776;SDS011;6452;41.572;23.732;2022-10-16T11:14:08;2.35;;;2.15;;
12776;SDS011;6452;41.572;23.732;2022-10-16T11:16:39;2.55;;;2.45;;
12776;SDS011;6452;41.572;23.732;2022-10-16T11:22:04;2.30;;;2.30;;
12776;SDS011;6452;41.572;23.732;2022-10-16T11:26:58;2.50;;;2.30;;
12776;SDS011;6452;41.572;23.732;2022-10-16T11:29:29;2.55;;;2.45;;
12776;SDS011;6452;41.572;23.732;2022-10-16T11:32:01;3.00;;;2.80;;
12776;SDS011;6452;41.572;23.732;2022-10-16T11:34:36;2.50;;;2.30;;
12776;SDS011;6452;41.572;23.732;2022-10-16T11:37:20;2.70;;;2.50;;
12776;SDS011;6452;41.572;23.732;2022-10-16T11:39:49;2.50;;;2.30;;
12776;SDS011;6452;41.572;23.732;2022-10-16T11:49:45;2.30;;;2.20;;
12776;SDS011;6452;41.572;23.732;2022-10-16T11:52:22;2.35;;;2.20;;
12776;SDS011;6452;41.572;23.732;2022-10-16T11:55:02;2.83;;;2.38;;
12776;SDS011;6452;41.572;23.732;2022-10-16T11:57:31;2.17;;;2.08;;
12776;SDS011;6452;41.572;23.732;2022-10-16T12:02:43;2.75;;;2.15;;
12776;SDS011;6452;41.572;23.732;2022-10-16T12:05:33;2.40;;;2.20;;
12776;SDS011;6452;41.572;23.732;2022-10-16T12:08:10;2.22;;;2.10;;
12776;SDS011;6452;41.572;23.732;2022-10-16T12:10:37;2.03;;;2.00;;
12776;SDS011;6452;41.572;23.732;2022-10-16T12:13:04;2.17;;;1.90;;
12776;SDS011;6452;41.572;23.732;2022-10-16T12:15:31;2.50;;;2.28;;
12776;SDS011;6452;41.572;23.732;2022-10-16T12:17:58;1.88;;;1.80;;
12776;SDS011;6452;41.572;23.732;2022-10-16T12:22:56;2.50;;;1.80;;
12776;SDS011;6452;41.572;23.732;2022-10-16T12:25:30;1.98;;;1.88;;
12776;SDS011;6452;41.572;23.732;2022-10-16T12:28:01;1.83;;;1.83;;
12776;SDS011;6452;41.572;23.732;2022-10-16T12:30:32;1.70;;;1.70;;
12776;SDS011;6452;41.572;23.732;2022-10-16T12:33:03;2.28;;;2.10;;
12776;SDS011;6452;41.572;23.732;2022-10-16T12:35:30;3.28;;;1.88;;
12776;SDS011;6452;41.572;23.732;2022-10-16T12:38:15;4.00;;;2.15;;
12776;SDS011;6452;41.572;23.732;2022-10-16T12:40:42;2.00;;;1.90;;
12776;SDS011;6452;41.572;23.732;2022-10-16T12:43:13;9.43;;;7.05;;
12776;SDS011;6452;41.572;23.732;2022-10-16T12:45:39;4.35;;;3.30;;
12776;SDS011;6452;41.572;23.732;2022-10-16T12:48:18;3.28;;;3.08;;
12776;SDS011;6452;41.572;23.732;2022-10-16T12:50:45;2.63;;;2.38;;
12776;SDS011;6452;41.572;23.732;2022-10-16T12:58:25;2.30;;;2.20;;
12776;SDS011;6452;41.572;23.732;2022-10-16T13:00:57;2.13;;;2.03;;
12776;SDS011;6452;41.572;23.732;2022-10-16T13:06:22;2.10;;;2.00;;
12776;SDS011;6452;41.572;23.732;2022-10-16T13:16:30;2.50;;;2.30;;
12776;SDS011;6452;41.572;23.732;2022-10-16T13:26:53;2.45;;;2.03;;
12776;SDS011;6452;41.572;23.732;2022-10-16T13:29:24;1.75;;;1.75;;
12776;SDS011;6452;41.572;23.732;2022-10-16T13:31:54;1.90;;;1.80;;
12776;SDS011;6452;41.572;23.732;2022-10-16T13:34:21;3.58;;;2.00;;
12776;SDS011;6452;41.572;23.732;2022-10-16T13:36:48;1.40;;;1.40;;
12776;SDS011;6452;41.572;23.732;2022-10-16T13:39:27;1.70;;;1.70;;
12776;SDS011;6452;41.572;23.732;2022-10-16T13:42:04;1.88;;;1.77;;
12776;SDS011;6452;41.572;23.732;2022-10-16T13:44:38;2.70;;;1.98;;
12776;SDS011;6452;41.572;23.732;2022-10-16T13:47:05;2.03;;;1.80;;
12776;SDS011;6452;41.572;23.732;2022-10-16T13:49:30;1.90;;;1.77;;
12776;SDS011;6452;41.572;23.732;2022-10-16T13:51:58;3.03;;;1.85;;
12776;SDS011;6452;41.572;23.732;2022-10-16T13:54:27;1.90;;;1.80;;
12776;SDS011;6452;41.572;23.732;2022-10-16T13:57:16;1.75;;;1.65;;
12776;SDS011;6452;41.572;23.732;2022-10-16T13:59:45;1.48;;;1.42;;
12776;SDS011;6452;41.572;23.732;2022-10-16T14:02:17;1.48;;;1.48;;
12776;SDS011;6452;41.572;23.732;2022-10-16T14:04:45;1.60;;;1.50;;
12776;SDS011;6452;41.572;23.732;2022-10-16T14:07:18;4.88;;;1.63;;
12776;SDS011;6452;41.572;23.732;2022-10-16T14:09:47;2.08;;;1.98;;
12776;SDS011;6452;41.572;23.732;2022-10-16T14:12:13;1.92;;;1.83;;
12776;SDS011;6452;41.572;23.732;2022-10-16T14:14:40;3.67;;;2.78;;
12776;SDS011;6452;41.572;23.732;2022-10-16T14:17:13;3.28;;;2.40;;
12776;SDS011;6452;41.572;23.732;2022-10-16T14:19:39;2.47;;;2.28;;
12776;SDS011;6452;41.572;23.732;2022-10-16T14:22:11;2.53;;;2.30;;
12776;SDS011;6452;41.572;23.732;2022-10-16T14:24:42;3.17;;;3.00;;
12776;SDS011;6452;41.572;23.732;2022-10-16T14:27:26;6.15;;;5.32;;
12776;SDS011;6452;41.572;23.732;2022-10-16T14:33:18;6.63;;;6.05;;
12776;SDS011;6452;41.572;23.732;2022-10-16T14:36:05;7.80;;;6.47;;
12776;SDS011;6452;41.572;23.732;2022-10-16T14:38:37;8.48;;;7.03;;
12776;SDS011;6452;41.572;23.732;2022-10-16T14:41:04;10.15;;;7.85;;
12776;SDS011;6452;41.572;23.732;2022-10-16T14:43:33;7.80;;;5.90;;
12776;SDS011;6452;41.572;23.732;2022-10-16T15:02:59;5.60;;;4.00;;
12776;SDS011;6452;41.572;23.732;2022-10-16T15:05:26;4.50;;;4.10;;
12776;SDS011;6452;41.572;23.732;2022-10-16T15:07:53;4.35;;;3.88;;
12776;SDS011;6452;41.572;23.732;2022-10-16T15:10:20;5.07;;;4.00;;
12776;SDS011;6452;41.572;23.732;2022-10-16T15:12:47;7.63;;;5.00;;
12776;SDS011;6452;41.572;23.732;2022-10-16T15:17:48;4.90;;;4.50;;
12776;SDS011;6452;41.572;23.732;2022-10-16T15:39:49;18.20;;;12.40;;
12776;SDS011;6452;41.572;23.732;2022-10-16T15:42:15;22.08;;;14.10;;
12776;SDS011;6452;41.572;23.732;2022-10-16T15:44:41;23.60;;;15.60;;
12776;SDS011;6452;41.572;23.732;2022-10-16T15:47:07;23.75;;;15.43;;
12776;SDS011;6452;41.572;23.732;2022-10-16T15:49:34;16.27;;;11.20;;
12776;SDS011;6452;41.572;23.732;2022-10-16T15:52:00;13.45;;;9.43;;
12776;SDS011;6452;41.572;23.732;2022-10-16T15:54:26;11.90;;;9.68;;
12776;SDS011;6452;41.572;23.732;2022-10-16T15:56:52;9.27;;;8.27;;
12776;SDS011;6452;41.572;23.732;2022-10-16T15:59:18;9.95;;;8.00;;
12776;SDS011;6452;41.572;23.732;2022-10-16T16:01:45;14.70;;;9.90;;
12776;SDS011;6452;41.572;23.732;2022-10-16T16:04:15;8.38;;;7.57;;
12776;SDS011;6452;41.572;23.732;2022-10-16T16:06:42;8.70;;;7.80;;
12776;SDS011;6452;41.572;23.732;2022-10-16T16:09:10;9.48;;;8.00;;
12776;SDS011;6452;41.572;23.732;2022-10-16T16:11:36;11.88;;;9.35;;
12776;SDS011;6452;41.572;23.732;2022-10-16T16:14:07;14.88;;;13.18;;
12776;SDS011;6452;41.572;23.732;2022-10-16T16:16:35;13.60;;;10.70;;
12776;SDS011;6452;41.572;23.732;2022-10-16T16:19:04;11.65;;;10.48;;
12776;SDS011;6452;41.572;23.732;2022-10-16T16:21:30;13.07;;;10.77;;
12776;SDS011;6452;41.572;23.732;2022-10-16T16:23:56;56.90;;;47.53;;
12776;SDS011;6452;41.572;23.732;2022-10-16T16:26:28;15.68;;;12.32;;
12776;SDS011;6452;41.572;23.732;2022-10-16T16:29:14;14.00;;;11.35;;
12776;SDS011;6452;41.572;23.732;2022-10-16T16:31:40;12.18;;;10.27;;
12776;SDS011;6452;41.572;23.732;2022-10-16T16:34:06;16.10;;;10.93;;
12776;SDS011;6452;41.572;23.732;2022-10-16T16:36:33;12.05;;;9.90;;
12776;SDS011;6452;41.572;23.732;2022-10-16T16:38:59;13.98;;;12.57;;
12776;SDS011;6452;41.572;23.732;2022-10-16T16:41:26;20.02;;;15.88;;
12776;SDS011;6452;41.572;23.732;2022-10-16T16:44:03;19.90;;;15.73;;
12776;SDS011;6452;41.572;23.732;2022-10-16T16:46:30;14.80;;;12.40;;
12776;SDS011;6452;41.572;23.732;2022-10-16T17:13:18;7.00;;;6.40;;
12776;SDS011;6452;41.572;23.732;2022-10-16T17:18:09;6.20;;;5.70;;
12776;SDS011;6452;41.572;23.732;2022-10-16T17:40:00;4.50;;;4.10;;
12776;SDS011;6452;41.572;23.732;2022-10-16T17:57:00;3.20;;;3.00;;
12776;SDS011;6452;41.572;23.732;2022-10-16T18:01:52;3.70;;;3.40;;
